Time;durP1;ratioP1;P1;durP2;ratioP2;P2;SDS_P1;SDS_P2;PMS_P1;PMS_P2;Temp;Humidity;BMP_temperature;BMP_pressure;BME280_temperature;BME280_humidity;BME280_pressure;Samples;Min_cycle;Max_cycle;Signal;HPM_P1;HPM_P2
2021/03/27 04:00:32;;;;;;;7.05;5.53;;;11.00;99.90;;;;;;5732425;23;89202;-91
2021/03/27 04:03:23;;;;;;;6.75;5.55;;;11.10;99.90;;;;;;4854626;29;87103;-91
2021/03/27 04:06:07;;;;;;;7.05;5.32;;;11.10;99.90;;;;;;4865037;28;85530;-91
2021/03/27 04:08:55;;;;;;;5.65;4.93;;;11.10;99.90;;;;;;4875313;28;86000;-91
2021/03/27 04:11:42;;;;;;;5.65;5.15;;;11.20;99.90;;;;;;4858111;29;90429;-91
2021/03/27 04:14:40;;;;;;;5.20;4.40;;;11.30;99.90;;;;;;4860285;28;87088;-90
2021/03/27 04:17:26;;;;;;;5.85;4.45;;;11.40;99.90;;;;;;4802710;29;86934;-90
2021/03/27 04:20:26;;;;;;;5.20;4.65;;;11.40;99.80;;;;;;4854672;29;86299;-92
2021/03/27 04:23:12;;;;;;;4.43;4.00;;;11.50;98.90;;;;;;4857885;29;89194;-91
2021/03/27 04:25:44;;;;;;;3.90;3.60;;;11.60;98.50;;;;;;4847714;29;87578;-90
2021/03/27 04:28:21;;;;;;;4.57;4.15;;;11.70;98.40;;;;;;4838733;29;86911;-91
2021/03/27 04:31:17;;;;;;;5.75;4.10;;;11.70;98.30;;;;;;4855836;29;86592;-91
2021/03/27 04:33:55;;;;;;;5.15;4.65;;;11.80;98.00;;;;;;4838960;29;87189;-91
2021/03/27 04:36:54;;;;;;;6.82;4.63;;;11.70;98.30;;;;;;4821323;29;89240;-92
2021/03/27 04:39:38;;;;;;;6.40;4.25;;;11.70;98.60;;;;;;4835893;29;87194;-91
2021/03/27 04:42:17;;;;;;;4.95;4.45;;;11.60;99.60;;;;;;4852494;29;88058;-90
2021/03/27 04:44:57;;;;;;;5.32;4.53;;;11.50;99.90;;;;;;4837748;29;88701;-90
2021/03/27 04:47:38;;;;;;;4.40;4.00;;;11.40;99.90;;;;;;4837269;29;87603;-89
2021/03/27 04:50:09;;;;;;;4.93;3.75;;;11.20;99.90;;;;;;4853587;29;87519;-89
2021/03/27 04:52:53;;;;;;;4.55;3.80;;;11.10;99.90;;;;;;4852118;29;86805;-87
2021/03/27 04:55:39;;;;;;;4.78;3.72;;;11.00;99.90;;;;;;4852298;29;87821;-91
2021/03/27 04:58:14;;;;;;;3.25;3.05;;;10.90;99.90;;;;;;4836034;29;87082;-91
2021/03/27 05:00:41;;;;;;;3.20;2.97;;;;;;;;;;4872475;23;85859;-88
2021/03/27 05:03:41;;;;;;;2.80;2.60;;;10.50;99.90;;;;;;4853564;29;86803;-91
2021/03/27 05:06:41;;;;;;;2.53;2.33;;;10.30;99.90;;;;;;4853584;29;90392;-89
2021/03/27 05:09:41;;;;;;;2.80;2.58;;;10.30;99.90;;;;;;4853803;29;89016;-90
2021/03/27 05:12:24;;;;;;;2.60;2.40;;;10.10;99.90;;;;;;4854758;29;86876;-89
2021/03/27 05:15:18;;;;;;;2.40;2.30;;;10.00;99.90;;;;;;4856927;29;87306;-89
2021/03/27 05:17:44;;;;;;;1.80;1.70;;;;;;;;;;4855685;29;90865;-90
2021/03/27 05:20:33;;;;;;;1.92;1.83;;;9.90;99.90;;;;;;4856193;29;88970;-89
2021/03/27 05:23:32;;;;;;;2.00;1.90;;;9.80;99.90;;;;;;4854639;29;86922;-88
2021/03/27 05:26:34;;;;;;;1.70;1.70;;;9.80;99.90;;;;;;4849028;29;86953;-90
2021/03/27 05:29:37;;;;;;;2.20;2.10;;;9.70;99.90;;;;;;4852902;29;88510;-89
2021/03/27 05:32:38;;;;;;;2.50;2.35;;;9.50;99.90;;;;;;4848644;29;88098;-89
2021/03/27 05:35:25;;;;;;;2.63;2.45;;;9.30;99.90;;;;;;4863956;29;87032;-89
2021/03/27 05:38:18;;;;;;;2.10;2.00;;;9.10;99.90;;;;;;4850250;29;87954;-89
2021/03/27 05:41:09;;;;;;;2.53;2.33;;;9.10;99.90;;;;;;4851691;29;88043;-89
2021/03/27 05:44:09;;;;;;;3.67;1.90;;;9.10;99.90;;;;;;4851737;29;88297;-90
2021/03/27 05:49:40;;;;;;;2.93;2.50;;;9.10;99.90;;;;;;4867079;28;87296;-86
2021/03/27 05:52:25;;;;;;;2.42;2.33;;;9.00;99.90;;;;;;4872110;29;88303;-85
2021/03/27 05:55:25;;;;;;;2.33;2.13;;;9.10;99.90;;;;;;4867894;28;87773;-85
2021/03/27 05:58:15;;;;;;;1.98;1.83;;;9.10;99.90;;;;;;4874642;29;86184;-86
2021/03/27 06:04:18;;;;;;;2.65;2.47;;;9.00;99.90;;;;;;4853123;29;86913;-90
2021/03/27 06:07:33;;;;;;;2.50;2.40;;;9.00;99.90;;;;;;4836602;29;89962;-90
2021/03/27 06:10:46;;;;;;;2.10;2.00;;;9.10;99.90;;;;;;4851108;29;86515;-90
2021/03/27 06:13:43;;;;;;;3.70;2.30;;;9.10;99.90;;;;;;4835933;29;86931;-91
2021/03/27 06:16:37;;;;;;;2.40;2.30;;;9.20;99.90;;;;;;4835657;29;89805;-91
2021/03/27 06:19:15;;;;;;;2.30;2.20;;;9.20;99.90;;;;;;4835602;29;87953;-91
2021/03/27 06:22:33;;;;;;;2.10;2.00;;;9.10;99.90;;;;;;4849713;29;86623;-91
2021/03/27 06:25:22;;;;;;;2.47;2.28;;;8.90;99.90;;;;;;4744779;29;87019;-92
2021/03/27 06:28:19;;;;;;;2.50;2.30;;;9.00;99.90;;;;;;4828386;29;88501;-90
2021/03/27 06:30:50;;;;;;;2.70;2.50;;;8.90;99.90;;;;;;4829403;29;87190;-91
2021/03/27 06:33:46;;;;;;;2.30;2.20;;;8.90;99.90;;;;;;4852660;29;86885;-91
2021/03/27 06:36:33;;;;;;;3.40;2.10;;;8.90;99.90;;;;;;4847621;29;88175;-90
2021/03/27 06:39:32;;;;;;;3.33;2.22;;;8.80;99.90;;;;;;4833020;29;90423;-86
2021/03/27 06:42:21;;;;;;;2.72;2.10;;;8.70;99.90;;;;;;4814720;29;87202;-90
2021/03/27 06:45:19;;;;;;;2.40;2.20;;;8.60;99.90;;;;;;4847555;29;86844;-91
2021/03/27 06:48:04;;;;;;;3.03;2.72;;;8.60;99.90;;;;;;4846455;29;86508;-89
2021/03/27 06:50:52;;;;;;;3.72;2.80;;;8.60;99.90;;;;;;4822499;29;88108;-91
2021/03/27 06:53:24;;;;;;;4.13;2.38;;;8.60;99.90;;;;;;4827744;29;87066;-90
2021/03/27 06:55:50;;;;;;;2.45;2.10;;;;;;;;;;4850456;29;85570;-89
2021/03/27 06:58:19;;;;;;;2.22;2.05;;;8.70;98.50;;;;;;4845197;29;87782;-88
2021/03/27 07:00:44;;;;;;;1.90;1.80;;;8.80;97.30;;;;;;4851225;29;87221;-88
2021/03/27 07:03:22;;;;;;;4.05;2.53;;;8.90;97.40;;;;;;4863642;29;87960;-87
2021/03/27 07:06:12;;;;;;;2.00;1.90;;;8.90;96.00;;;;;;4853765;29;87078;-91
2021/03/27 07:09:15;;;;;;;3.80;2.00;;;8.90;96.80;;;;;;4858077;29;86464;-93
2021/03/27 07:11:56;;;;;;;2.47;2.10;;;8.90;97.20;;;;;;4854462;29;90706;-91
2021/03/27 07:14:44;;;;;;;1.75;1.65;;;9.00;97.70;;;;;;4852434;29;89655;-90
2021/03/27 07:17:22;;;;;;;2.33;2.22;;;9.00;96.20;;;;;;4848916;29;86622;-89
2021/03/27 07:20:29;;;;;;;2.03;1.92;;;8.90;94.90;;;;;;4865651;29;86314;-89
2021/03/27 07:23:03;;;;;;;2.22;1.88;;;8.90;94.30;;;;;;4833383;29;86894;-87
2021/03/27 07:26:01;;;;;;;2.45;2.00;;;9.00;92.80;;;;;;4837150;29;86434;-92
2021/03/27 07:28:52;;;;;;;1.92;1.83;;;9.00;93.20;;;;;;4834843;29;87232;-91
2021/03/27 07:31:34;;;;;;;3.35;1.90;;;9.00;92.80;;;;;;4849733;29;87958;-90
2021/03/27 07:34:38;;;;;;;2.17;2.03;;;9.00;92.80;;;;;;4845774;29;88332;-92
2021/03/27 07:37:18;;;;;;;3.15;2.00;;;8.90;93.00;;;;;;4842242;29;89317;-89
2021/03/27 07:39:52;;;;;;;2.35;2.17;;;8.90;92.80;;;;;;4833514;29;87081;-91
2021/03/27 07:42:44;;;;;;;2.13;2.00;;;8.90;92.40;;;;;;4832933;29;86982;-88
2021/03/27 07:45:28;;;;;;;2.33;1.85;;;8.80;92.80;;;;;;4813824;29;87864;-88
2021/03/27 07:47:57;;;;;;;2.63;2.42;;;9.00;92.90;;;;;;4845215;29;87248;-88
2021/03/27 07:50:42;;;;;;;3.40;1.85;;;8.90;92.90;;;;;;4861073;29;86162;-88
2021/03/27 07:53:20;;;;;;;2.10;2.00;;;8.90;93.10;;;;;;4848705;29;87579;-87
2021/03/27 07:56:04;;;;;;;2.47;2.38;;;9.00;93.70;;;;;;4833483;29;90989;-86
2021/03/27 07:58:55;;;;;;;2.20;2.00;;;9.00;92.60;;;;;;4818984;29;88449;-87
2021/03/27 08:01:42;;;;;;;1.87;1.77;;;9.00;93.10;;;;;;4849966;29;86924;-88
2021/03/27 08:04:42;;;;;;;2.20;2.10;;;9.00;93.10;;;;;;4850078;29;86959;-87
2021/03/27 08:07:37;;;;;;;6.93;6.32;;;9.20;93.10;;;;;;4844296;29;88420;-89
2021/03/27 08:10:08;;;;;;;3.33;3.00;;;9.20;92.40;;;;;;4836542;29;87647;-89
2021/03/27 08:12:35;;;;;;;7.28;3.10;;;9.30;92.60;;;;;;4823032;29;87151;-86
2021/03/27 08:15:01;;;;;;;2.60;2.05;;;9.50;92.50;;;;;;4858733;29;87129;-88
2021/03/27 08:17:51;;;;;;;2.30;2.10;;;9.50;92.80;;;;;;4856078;29;86231;-89
2021/03/27 08:20:27;;;;;;;1.92;1.83;;;9.50;92.70;;;;;;4831372;29;88997;-89
2021/03/27 08:23:23;;;;;;;1.80;1.70;;;9.50;92.80;;;;;;4857183;29;86998;-88
2021/03/27 08:26:07;;;;;;;4.30;2.15;;;9.50;92.70;;;;;;4842710;29;88045;-90
2021/03/27 08:29:00;;;;;;;4.57;2.00;;;9.50;93.00;;;;;;4846293;29;88574;-90
2021/03/27 08:31:40;;;;;;;2.53;2.33;;;9.50;93.10;;;;;;4857490;29;88349;-86
2021/03/27 08:34:30;;;;;;;3.25;1.80;;;9.50;93.40;;;;;;4846227;29;87568;-88
2021/03/27 08:37:20;;;;;;;2.22;2.10;;;9.50;94.00;;;;;;4839965;29;88131;-87
2021/03/27 08:40:05;;;;;;;1.98;1.80;;;9.50;93.80;;;;;;4858605;29;88097;-86
2021/03/27 08:42:49;;;;;;;2.15;1.98;;;9.50;93.80;;;;;;4853816;29;86931;-88
2021/03/27 08:45:24;;;;;;;2.25;2.15;;;9.60;93.50;;;;;;4852048;29;85844;-87
2021/03/27 08:47:59;;;;;;;3.53;2.92;;;9.70;93.50;;;;;;4863534;29;86281;-86
2021/03/27 08:50:47;;;;;;;2.83;2.60;;;9.80;93.20;;;;;;4859666;29;87093;-86
2021/03/27 08:53:32;;;;;;;2.50;2.30;;;9.80;92.70;;;;;;4867583;29;87671;-85
2021/03/27 08:56:12;;;;;;;4.13;2.47;;;9.80;92.10;;;;;;4840670;29;87015;-90
2021/03/27 08:59:03;;;;;;;3.80;2.10;;;10.00;92.30;;;;;;4828969;29;87043;-88
2021/03/27 09:01:48;;;;;;;2.67;2.20;;;9.90;91.90;;;;;;4842064;29;88727;-88
2021/03/27 09:04:48;;;;;;;3.45;2.05;;;10.10;91.60;;;;;;4859390;29;87852;-88
2021/03/27 09:07:26;;;;;;;2.45;2.00;;;10.20;90.90;;;;;;4830135;29;87162;-89
2021/03/27 09:10:22;;;;;;;2.20;2.10;;;10.20;91.60;;;;;;4835112;29;87049;-90
2021/03/27 09:13:06;;;;;;;1.90;1.80;;;10.20;91.20;;;;;;4844450;29;86396;-90
2021/03/27 09:15:49;;;;;;;2.08;1.92;;;10.30;91.50;;;;;;4834551;29;87021;-89
2021/03/27 09:18:20;;;;;;;4.22;2.22;;;10.40;91.30;;;;;;4834833;29;86847;-87
2021/03/27 09:20:48;;;;;;;3.15;1.98;;;10.50;91.10;;;;;;4829027;29;88109;-86
2021/03/27 09:23:56;;;;;;;3.20;2.22;;;10.60;91.00;;;;;;4846862;29;89281;-85
2021/03/27 09:26:57;;;;;;;2.90;2.30;;;10.50;90.30;;;;;;4852452;29;87354;-86
2021/03/27 09:29:41;;;;;;;3.30;2.00;;;10.30;90.00;;;;;;4845993;29;87250;-87
2021/03/27 09:32:22;;;;;;;4.60;2.90;;;10.10;90.10;;;;;;4853842;29;86995;-84
2021/03/27 09:35:11;;;;;;;3.90;2.40;;;10.10;91.40;;;;;;4853839;29;87853;-83
2021/03/27 09:38:00;;;;;;;3.15;2.80;;;10.30;91.40;;;;;;4857673;29;87551;-85
2021/03/27 09:40:40;;;;;;;4.38;2.47;;;10.50;90.20;;;;;;4852849;29;88106;-85
2021/03/27 09:43:27;;;;;;;3.90;2.70;;;10.40;90.30;;;;;;4848957;29;86751;-85
2021/03/27 09:46:15;;;;;;;2.58;2.25;;;10.50;89.80;;;;;;4844374;29;87246;-86
2021/03/27 09:49:13;;;;;;;2.65;2.45;;;10.50;88.70;;;;;;4858959;29;88355;-85
2021/03/27 09:52:00;;;;;;;3.83;2.80;;;10.60;88.30;;;;;;4866923;29;86957;-86
2021/03/27 09:54:36;;;;;;;2.67;2.47;;;10.70;88.70;;;;;;4850914;29;86836;-86
2021/03/27 09:57:15;;;;;;;3.25;2.13;;;10.90;87.30;;;;;;4859692;29;89672;-83
2021/03/27 09:59:50;;;;;;;3.28;2.20;;;11.00;86.90;;;;;;4864132;29;87094;-83
2021/03/27 10:02:31;;;;;;;2.97;2.42;;;11.00;84.20;;;;;;4878964;29;87065;-83
2021/03/27 10:05:23;;;;;;;3.20;2.38;;;11.00;83.10;;;;;;4863060;29;86284;-87
2021/03/27 10:08:10;;;;;;;2.67;2.40;;;11.10;81.70;;;;;;4853046;29;87178;-84
2021/03/27 10:10:45;;;;;;;2.78;2.58;;;11.30;81.70;;;;;;4867510;29;86854;-86
2021/03/27 10:13:37;;;;;;;4.28;2.75;;;11.80;80.00;;;;;;4866019;29;86596;-84
2021/03/27 10:16:09;;;;;;;4.00;2.40;;;11.90;78.60;;;;;;4851632;29;87099;-88
2021/03/27 10:19:03;;;;;;;8.27;4.47;;;11.80;79.40;;;;;;4857992;29;86989;-87
2021/03/27 10:21:59;;;;;;;4.63;3.15;;;12.00;76.90;;;;;;4853142;29;87512;-87
2021/03/27 10:24:40;;;;;;;3.47;2.47;;;12.30;75.90;;;;;;4849181;29;86963;-86
2021/03/27 10:27:11;;;;;;;;;;;12.50;76.40;;;;;;4851208;29;87148;-84
2021/03/27 10:29:44;;;;;;;;;;;12.50;71.80;;;;;;4854571;29;87691;-85
2021/03/27 10:32:25;;;;;;;3.05;2.50;;;12.50;72.30;;;;;;4854483;29;87012;-84
2021/03/27 10:35:12;;;;;;;2.72;2.25;;;12.40;72.00;;;;;;4853512;29;87443;-83
2021/03/27 10:37:42;;;;;;;5.32;3.42;;;12.70;71.30;;;;;;4856280;29;87115;-85
2021/03/27 10:40:26;;;;;;;2.38;2.17;;;12.90;70.20;;;;;;4855365;29;86695;-87
2021/03/27 10:43:42;;;;;;;2.50;2.30;;;13.00;69.30;;;;;;4853411;29;87980;-87
2021/03/27 10:46:18;;;;;;;2.60;2.40;;;12.80;70.70;;;;;;4836535;29;86891;-88
2021/03/27 10:49:27;;;;;;;3.65;2.67;;;13.00;69.00;;;;;;4858461;29;87100;-87
2021/03/27 10:51:53;;;;;;;7.32;3.22;;;13.10;68.90;;;;;;4800585;29;87349;-87
2021/03/27 10:54:37;;;;;;;5.45;3.10;;;13.00;68.60;;;;;;4854079;29;87587;-87
2021/03/27 10:57:03;;;;;;;3.92;2.45;;;13.00;68.40;;;;;;4854463;29;87113;-88
2021/03/27 10:59:42;;;;;;;2.35;2.10;;;13.00;67.00;;;;;;4837411;29;87018;-88
2021/03/27 11:02:35;;;;;;;4.35;2.63;;;12.90;67.00;;;;;;4823146;29;88665;-88
2021/03/27 11:05:11;;;;;;;2.70;2.25;;;12.90;67.30;;;;;;4808795;29;86979;-89
2021/03/27 11:08:15;;;;;;;2.40;2.20;;;12.90;67.20;;;;;;4814778;29;87006;-88
2021/03/27 11:10:58;;;;;;;2.70;2.40;;;13.30;66.90;;;;;;4783780;29;87931;-85
2021/03/27 11:13:58;;;;;;;6.72;3.08;;;13.50;65.90;;;;;;4817660;29;90698;-85
2021/03/27 11:16:31;;;;;;;8.07;3.97;;;13.60;66.00;;;;;;4811548;29;89126;-85
2021/03/27 11:19:15;;;;;;;3.80;3.00;;;13.70;66.20;;;;;;4819122;29;86703;-85
2021/03/27 11:22:05;;;;;;;7.18;4.80;;;14.10;64.80;;;;;;4811112;29;87015;-85
2021/03/27 11:24:40;;;;;;;3.80;3.43;;;14.30;62.80;;;;;;4811472;29;87621;-85
2021/03/27 11:31:08;;;;;;;2.90;2.70;;;15.10;61.50;;;;;;4812062;29;86581;-86
2021/03/27 11:33:54;;;;;;;45.67;35.08;;;15.00;58.50;;;;;;4812389;29;87101;-86
2021/03/27 11:36:46;;;;;;;5.00;4.55;;;16.10;58.80;;;;;;4820453;29;88037;-86
2021/03/27 11:39:53;;;;;;;11.63;8.38;;;16.70;54.50;;;;;;4816724;29;88007;-86
2021/03/27 11:42:37;;;;;;;33.45;28.38;;;16.60;55.90;;;;;;4815124;29;87064;-88
2021/03/27 11:45:40;;;;;;;27.20;24.50;;;17.30;53.00;;;;;;4815531;29;86936;-89
2021/03/27 11:48:26;;;;;;;4.13;3.42;;;17.40;52.30;;;;;;4814532;29;87717;-89
2021/03/27 11:51:13;;;;;;;18.17;16.27;;;17.20;50.40;;;;;;4816019;29;90792;-87
2021/03/27 11:53:41;;;;;;;14.77;13.25;;;17.30;51.10;;;;;;4813655;29;87126;-87
2021/03/27 11:56:28;;;;;;;5.80;5.10;;;17.00;52.40;;;;;;4814115;29;87025;-87
2021/03/27 12:02:17;;;;;;;6.05;4.93;;;16.00;53.80;;;;;;4835564;29;87047;-90
2021/03/27 12:04:46;;;;;;;10.25;8.20;;;15.70;53.20;;;;;;4850055;29;86913;-90
2021/03/27 12:07:19;;;;;;;7.65;6.95;;;15.00;55.00;;;;;;4849237;29;87827;-89
2021/03/27 12:10:03;;;;;;;7.60;6.80;;;15.00;55.80;;;;;;4846973;29;87968;-88
2021/03/27 12:12:50;;;;;;;8.45;6.75;;;15.20;54.90;;;;;;4846731;29;87512;-88
2021/03/27 12:15:28;;;;;;;6.60;4.63;;;15.20;55.40;;;;;;4829831;29;87691;-88
2021/03/27 12:18:34;;;;;;;3.15;2.85;;;15.10;55.40;;;;;;4851220;29;86998;-87
2021/03/27 12:21:30;;;;;;;7.28;4.43;;;15.40;54.90;;;;;;4846020;29;87724;-88
2021/03/27 12:24:08;;;;;;;5.00;4.40;;;15.50;55.20;;;;;;4848545;29;88831;-88
2021/03/27 12:27:02;;;;;;;5.07;4.00;;;15.50;54.70;;;;;;4851838;29;86341;-86
2021/03/27 12:29:47;;;;;;;4.45;3.30;;;15.50;54.50;;;;;;4842476;29;86834;-88
2021/03/27 12:32:27;;;;;;;4.80;4.15;;;15.40;55.70;;;;;;4848606;29;87887;-87
2021/03/27 12:35:16;;;;;;;3.30;2.90;;;15.30;55.40;;;;;;4849101;29;87823;-88
2021/03/27 12:38:06;;;;;;;3.70;3.20;;;15.30;55.30;;;;;;4846621;29;87013;-87
2021/03/27 12:40:43;;;;;;;3.63;3.25;;;15.00;55.70;;;;;;4847764;29;86701;-86
2021/03/27 12:43:24;;;;;;;3.13;2.88;;;14.70;55.60;;;;;;4853744;29;88232;-84
2021/03/27 12:46:04;;;;;;;4.43;2.55;;;14.50;56.60;;;;;;4854203;29;87022;-86
2021/03/27 12:48:58;;;;;;;4.18;2.83;;;14.20;56.40;;;;;;4854483;29;86952;-85
2021/03/27 12:51:42;;;;;;;2.83;2.63;;;14.10;57.60;;;;;;4853283;29;86956;-85
2021/03/27 12:54:23;;;;;;;3.95;3.00;;;14.10;57.40;;;;;;4855054;29;88084;-85
2021/03/27 12:57:04;;;;;;;3.72;2.40;;;14.30;57.50;;;;;;4854930;29;87031;-85
2021/03/27 12:59:39;;;;;;;3.15;2.60;;;14.20;57.60;;;;;;4854075;29;87015;-85
2021/03/27 13:02:29;;;;;;;3.58;2.63;;;14.40;57.10;;;;;;4853528;29;87988;-85
2021/03/27 13:05:09;;;;;;;3.53;3.00;;;14.40;56.30;;;;;;4854816;29;88162;-87
2021/03/27 13:07:50;;;;;;;3.58;3.25;;;14.20;55.20;;;;;;4838319;29;89725;-84
2021/03/27 13:10:19;;;;;;;3.25;2.58;;;14.40;55.70;;;;;;4855800;29;86969;-85
2021/03/27 13:13:09;;;;;;;4.03;2.40;;;14.50;56.70;;;;;;4855057;29;87098;-85
2021/03/27 13:16:15;;;;;;;3.85;2.90;;;14.60;55.80;;;;;;4853299;29;88836;-85
2021/03/27 13:18:48;;;;;;;3.70;2.83;;;14.70;54.60;;;;;;4842374;29;88592;-85
2021/03/27 13:21:35;;;;;;;4.03;2.80;;;14.70;55.10;;;;;;4849632;29;87022;-87
2021/03/27 13:24:22;;;;;;;3.42;2.50;;;14.60;54.30;;;;;;4863752;29;86985;-86
2021/03/27 13:26:51;;;;;;;3.42;2.63;;;14.60;54.10;;;;;;4841859;29;88748;-85
2021/03/27 13:29:35;;;;;;;2.60;2.40;;;14.60;54.20;;;;;;4831647;29;88078;-85
2021/03/27 13:32:30;;;;;;;2.55;2.35;;;14.40;54.80;;;;;;4843354;29;87007;-86
2021/03/27 13:35:08;;;;;;;3.80;2.50;;;13.90;56.40;;;;;;4850435;29;86974;-85
2021/03/27 13:37:48;;;;;;;2.75;2.40;;;13.20;59.50;;;;;;4852131;29;90042;-85
2021/03/27 13:40:30;;;;;;;3.47;2.80;;;13.10;58.40;;;;;;4849562;29;87213;-85
2021/03/27 13:43:14;;;;;;;3.05;2.50;;;13.40;60.10;;;;;;4865087;29;86959;-87
2021/03/27 13:46:08;;;;;;;2.80;2.60;;;13.80;59.00;;;;;;4859591;29;86622;-86
2021/03/27 13:49:19;;;;;;;3.53;3.28;;;14.20;57.70;;;;;;4855634;29;86329;-85
2021/03/27 13:52:05;;;;;;;2.40;2.20;;;14.70;55.50;;;;;;4831928;29;86883;-85
2021/03/27 13:54:46;;;;;;;3.63;2.40;;;14.90;55.80;;;;;;4850391;29;86911;-84
2021/03/27 13:57:18;;;;;;;2.47;2.15;;;14.70;56.80;;;;;;4851405;29;87946;-85
2021/03/27 14:00:14;;;;;;;3.00;2.47;;;14.60;56.20;;;;;;4848245;29;87327;-85
2021/03/27 14:03:10;;;;;;;4.93;2.70;;;14.90;55.80;;;;;;4851557;29;87131;-86
2021/03/27 14:05:57;;;;;;;2.53;2.33;;;15.10;55.90;;;;;;4848835;29;86969;-86
2021/03/27 14:08:44;;;;;;;4.25;2.50;;;15.50;55.40;;;;;;4844112;29;87357;-85
2021/03/27 14:11:15;;;;;;;3.13;2.40;;;15.90;54.80;;;;;;4838027;29;87787;-85
2021/03/27 14:14:03;;;;;;;3.03;2.70;;;16.40;55.20;;;;;;4856415;29;87380;-86
2021/03/27 14:17:33;;;;;;;3.17;2.65;;;17.20;51.60;;;;;;4846376;29;86278;-86
2021/03/27 14:20:32;;;;;;;2.92;2.60;;;17.60;50.30;;;;;;4770034;29;86994;-87
2021/03/27 14:23:28;;;;;;;2.85;2.60;;;17.60;50.20;;;;;;4757350;29;87524;-86
2021/03/27 14:26:24;;;;;;;4.18;3.30;;;17.50;50.60;;;;;;4850339;29;88132;-88
2021/03/27 14:29:11;;;;;;;3.10;2.80;;;17.20;50.60;;;;;;4830383;29;87001;-89
2021/03/27 14:31:51;;;;;;;4.07;3.17;;;17.00;51.20;;;;;;4831491;29;86870;-88
2021/03/27 14:34:52;;;;;;;4.10;3.22;;;16.80;51.70;;;;;;4850838;29;87818;-87
2021/03/27 14:37:36;;;;;;;;;;;16.70;52.00;;;;;;4850751;29;87747;-87
2021/03/27 14:40:25;;;;;;;3.00;2.80;;;16.40;51.50;;;;;;4853291;29;86227;-90
2021/03/27 14:43:27;;;;;;;3.03;2.70;;;16.30;51.70;;;;;;4849376;29;86936;-89
2021/03/27 14:46:25;;;;;;;3.95;3.20;;;16.00;51.40;;;;;;4831239;29;86625;-89
2021/03/27 14:49:31;;;;;;;3.20;3.00;;;15.60;52.80;;;;;;4846463;29;87185;-87
2021/03/27 14:52:07;;;;;;;4.40;3.20;;;15.30;53.50;;;;;;4851411;29;86833;-91
2021/03/27 14:54:54;;;;;;;2.80;2.60;;;15.30;54.10;;;;;;4834038;29;87825;-87
2021/03/27 14:57:29;;;;;;;2.90;2.70;;;15.70;53.90;;;;;;4846510;29;86925;-87
2021/03/27 15:00:09;;;;;;;3.13;2.80;;;16.10;52.90;;;;;;4845087;29;87462;-89
2021/03/27 15:02:38;;;;;;;3.20;2.95;;;16.20;52.00;;;;;;4821333;29;86962;-90
2021/03/27 15:05:17;;;;;;;3.92;2.50;;;15.70;51.90;;;;;;4835520;29;86420;-90
2021/03/27 15:07:59;;;;;;;3.40;3.13;;;16.80;51.60;;;;;;4822318;29;88196;-91
2021/03/27 15:11:02;;;;;;;3.30;2.80;;;17.00;49.60;;;;;;4829283;29;90257;-92
2021/03/27 15:13:28;;;;;;;3.40;3.20;;;16.80;49.70;;;;;;4831691;29;86284;-89
2021/03/27 15:16:06;;;;;;;4.03;3.03;;;16.60;49.50;;;;;;4831219;29;86961;-89
2021/03/27 15:18:38;;;;;;;3.85;3.15;;;16.40;49.60;;;;;;4830618;29;88251;-89
2021/03/27 15:21:10;;;;;;;3.17;2.97;;;15.90;50.90;;;;;;4833729;29;87700;-90
2021/03/27 15:23:47;;;;;;;3.08;2.78;;;15.80;51.10;;;;;;4837762;29;86630;-91
2021/03/27 15:29:41;;;;;;;3.25;2.67;;;16.00;52.10;;;;;;4829734;29;86386;-88
2021/03/27 15:32:41;;;;;;;3.00;2.80;;;16.00;52.00;;;;;;4835283;29;87366;-88
2021/03/27 15:35:25;;;;;;;5.65;3.33;;;16.20;51.30;;;;;;4830306;29;86596;-89
2021/03/27 15:38:06;;;;;;;3.17;2.95;;;16.20;52.00;;;;;;4833654;29;87069;-90
2021/03/27 15:40:39;;;;;;;4.50;3.28;;;16.00;51.80;;;;;;4837812;29;90586;-90
2021/03/27 15:43:21;;;;;;;4.32;2.97;;;15.80;50.90;;;;;;4855153;29;89551;-90
2021/03/27 15:45:57;;;;;;;3.03;2.80;;;15.40;50.70;;;;;;4856106;29;86547;-90
2021/03/27 15:48:32;;;;;;;3.03;2.83;;;14.90;52.60;;;;;;4843834;29;87294;-90
2021/03/27 15:51:16;;;;;;;3.33;2.72;;;14.40;53.70;;;;;;4839055;29;91137;-90
2021/03/27 15:54:05;;;;;;;2.97;2.67;;;14.40;54.40;;;;;;4837460;29;90885;-89
2021/03/27 15:56:31;;;;;;;3.20;2.90;;;14.50;53.50;;;;;;4855492;29;86139;-89
2021/03/27 15:58:56;;;;;;;3.40;3.10;;;14.50;54.30;;;;;;4854535;29;86237;-89
2021/03/27 16:01:33;;;;;;;3.25;3.00;;;14.50;54.70;;;;;;4859558;29;87341;-90
2021/03/27 16:04:05;;;;;;;4.28;3.10;;;14.50;55.80;;;;;;4850226;29;86980;-89
2021/03/27 16:06:51;;;;;;;4.90;3.47;;;14.60;56.20;;;;;;4838897;29;86175;-88
2021/03/27 16:09:39;;;;;;;4.75;3.22;;;14.60;56.20;;;;;;4855121;29;87360;-88
2021/03/27 16:12:46;;;;;;;5.03;2.97;;;15.30;56.80;;;;;;4858454;29;87187;-89
2021/03/27 16:15:25;;;;;;;3.83;3.00;;;14.30;56.10;;;;;;4850075;29;90283;-89
2021/03/27 16:18:10;;;;;;;2.72;2.53;;;14.20;55.70;;;;;;4874075;29;86845;-89
2021/03/27 16:20:35;;;;;;;3.20;3.00;;;14.00;55.60;;;;;;4867342;29;86487;-89
2021/03/27 16:23:35;;;;;;;2.95;2.65;;;13.90;56.50;;;;;;4856312;29;87285;-90
2021/03/27 16:26:39;;;;;;;4.20;3.17;;;13.80;56.70;;;;;;4850281;29;87197;-90
2021/03/27 16:29:32;;;;;;;3.78;3.40;;;13.70;57.20;;;;;;4855667;29;87049;-89
2021/03/27 16:32:53;;;;;;;4.40;3.17;;;13.70;57.60;;;;;;4819481;29;87073;-88
2021/03/27 16:35:42;;;;;;;3.20;2.90;;;13.60;58.20;;;;;;4798561;29;86691;-89
2021/03/27 16:38:49;;;;;;;2.92;2.70;;;13.50;58.10;;;;;;4847932;29;90010;-89
2021/03/27 16:41:20;;;;;;;5.60;2.78;;;13.40;58.30;;;;;;4851860;29;87372;-89
2021/03/27 16:44:04;;;;;;;3.53;3.03;;;13.40;57.90;;;;;;4866554;29;87342;-90
2021/03/27 16:46:47;;;;;;;3.03;2.50;;;13.30;58.30;;;;;;4837339;29;87798;-90
2021/03/27 16:49:31;;;;;;;5.70;3.33;;;13.20;58.30;;;;;;4849411;29;88635;-90
2021/03/27 16:52:15;;;;;;;6.25;4.88;;;13.10;58.70;;;;;;4857019;29;86934;-90
2021/03/27 16:54:49;;;;;;;4.68;4.18;;;13.00;58.30;;;;;;4848325;29;87354;-89
2021/03/27 16:57:53;;;;;;;5.95;3.28;;;12.90;57.80;;;;;;4850304;29;90900;-90
2021/03/27 17:00:32;;;;;;;4.70;3.72;;;12.80;58.00;;;;;;4843909;29;89244;-89
2021/03/27 17:03:33;;;;;;;4.85;4.20;;;12.60;57.70;;;;;;4863995;29;86295;-90
2021/03/27 17:06:26;;;;;;;4.25;3.60;;;12.50;58.70;;;;;;4807733;29;86804;-90
2021/03/27 17:09:07;;;;;;;4.07;3.03;;;12.40;58.50;;;;;;4855840;29;86636;-85
2021/03/27 17:11:59;;;;;;;5.97;3.08;;;12.20;58.40;;;;;;4853586;29;87568;-88
2021/03/27 17:14:40;;;;;;;2.95;2.67;;;12.00;59.60;;;;;;4845648;29;87205;-89
2021/03/27 17:17:24;;;;;;;;;;;11.70;60.10;;;;;;4828680;29;87164;-91
2021/03/27 17:23:48;;;;;;;3.50;2.63;;;11.40;60.90;;;;;;4853156;29;86723;-92
2021/03/27 17:26:45;;;;;;;4.60;2.67;;;11.30;61.60;;;;;;4781708;29;86698;-92
2021/03/27 17:29:11;;;;;;;3.38;2.70;;;11.20;61.60;;;;;;4838382;29;86780;-89
2021/03/27 17:31:53;;;;;;;5.15;2.70;;;11.10;62.00;;;;;;4843237;29;87438;-90
2021/03/27 17:34:51;;;;;;;4.55;2.88;;;11.00;62.20;;;;;;4832826;29;87155;-92
2021/03/27 17:37:42;;;;;;;3.15;2.80;;;10.90;62.80;;;;;;4821608;29;86463;-91
2021/03/27 17:40:19;;;;;;;;;;;10.90;63.30;;;;;;4852241;29;88036;-88
2021/03/27 17:43:15;;;;;;;4.38;2.70;;;10.80;63.60;;;;;;4853311;29;88632;-88
2021/03/27 17:46:11;;;;;;;3.38;2.67;;;10.70;63.40;;;;;;4846812;29;87781;-89
2021/03/27 17:49:17;;;;;;;4.53;2.95;;;10.60;63.90;;;;;;4851319;29;87126;-88
2021/03/27 17:51:57;;;;;;;3.20;2.90;;;10.50;64.00;;;;;;4852067;29;87024;-90
2021/03/27 17:54:43;;;;;;;3.28;3.03;;;10.50;64.10;;;;;;4849865;29;87396;-86
2021/03/27 17:57:37;;;;;;;6.13;3.35;;;10.50;64.40;;;;;;4849575;29;87484;-86
2021/03/27 18:00:15;;;;;;;4.05;3.42;;;10.40;64.70;;;;;;4844978;29;86183;-91
2021/03/27 18:02:46;;;;;;;3.40;3.03;;;10.20;65.00;;;;;;4826716;29;86948;-89
2021/03/27 18:05:16;;;;;;;3.58;3.20;;;10.20;65.60;;;;;;4845730;29;90361;-88
2021/03/27 18:07:55;;;;;;;4.38;3.20;;;10.10;66.60;;;;;;4841683;29;87948;-90
2021/03/27 18:10:34;;;;;;;5.63;3.50;;;10.00;66.70;;;;;;4845290;29;86823;-90
2021/03/27 18:13:12;;;;;;;5.03;3.22;;;10.00;66.80;;;;;;4832754;29;87012;-90
2021/03/27 18:16:02;;;;;;;5.00;4.07;;;9.90;66.70;;;;;;4830796;29;88337;-90
2021/03/27 18:19:20;;;;;;;5.90;4.40;;;9.90;67.10;;;;;;4832664;29;88802;-90
2021/03/27 18:21:50;;;;;;;4.53;3.20;;;9.90;67.70;;;;;;4786866;29;87206;-89
2021/03/27 18:24:19;;;;;;;3.97;3.30;;;9.90;66.40;;;;;;4838642;29;86765;-89
2021/03/27 18:26:56;;;;;;;4.63;3.50;;;9.90;66.20;;;;;;4838935;29;87458;-89
2021/03/27 18:29:45;;;;;;;4.28;2.78;;;9.80;67.10;;;;;;4850940;29;87002;-89
2021/03/27 18:32:21;;;;;;;4.22;2.90;;;9.90;67.70;;;;;;4827569;29;86988;-88
2021/03/27 18:34:57;;;;;;;3.90;3.03;;;9.80;67.50;;;;;;4833595;29;87825;-90
2021/03/27 18:37:33;;;;;;;4.22;3.25;;;9.80;67.70;;;;;;4846193;29;87721;-88
2021/03/27 18:40:20;;;;;;;5.38;4.20;;;9.80;67.90;;;;;;4840910;29;88115;-89
2021/03/27 18:42:53;;;;;;;5.05;3.92;;;9.80;68.10;;;;;;4824662;29;87025;-89
2021/03/27 18:45:36;;;;;;;4.60;3.95;;;9.70;68.60;;;;;;4820851;29;87171;-88